Terminal Aerodrome Forecast
Issued by NWS Sioux Falls, SD

Home | Current Version | Previous Version | Graphics & Text | Print | Product List | Glossary Off
Versions: 1 2 3 4 5 6 7 8 9 10 11 12 13 14 15

000
FTUS43 KFSD 220521
TAFFSD
TAF
KFSD 220521Z 2206/2306 31005KT P6SM BKN015
     FM221000 VRB04KT P6SM SCT015
     FM221500 24009KT P6SM FEW020 SCT150
     FM222200 21009KT P6SM SCT150=

USA.gov is the U.S. government's official web portal to all federal, state and local government web resources and services.